Time;durP1;ratioP1;P1;durP2;ratioP2;P2;SDS_P1;SDS_P2;PMS_P1;PMS_P2;Temp;Humidity;BMP_temperature;BMP_pressure;BME280_temperature;BME280_humidity;BME280_pressure;Samples;Min_cycle;Max_cycle;Signal;HPM_P1;HPM_P2
2022/06/28 00:02:05;;;;;;;5.50;0.90;;;19.50;95.90;;;;;;4991014;28;20451;-67
2022/06/28 00:04:32;;;;;;;1.77;0.80;;;19.40;95.80;;;;;;4990693;28;20551;-67
2022/06/28 00:07:00;;;;;;;2.13;1.07;;;19.50;95.90;;;;;;4990781;28;20443;-68
2022/06/28 00:09:28;;;;;;;2.10;0.90;;;19.30;95.70;;;;;;4986666;28;20526;-67
2022/06/28 00:11:56;;;;;;;2.77;1.00;;;19.30;95.40;;;;;;4991057;28;20440;-67
2022/06/28 00:17:08;;;;;;;2.87;1.40;;;19.20;96.00;;;;;;4994705;28;20431;-67
2022/06/28 00:19:36;;;;;;;3.60;1.70;;;19.30;96.50;;;;;;4994304;28;20530;-67
2022/06/28 00:22:03;;;;;;;2.47;1.13;;;19.30;96.50;;;;;;4994906;28;20760;-69
2022/06/28 00:24:31;;;;;;;2.53;1.20;;;19.30;96.30;;;;;;4993577;28;20479;-67
2022/06/28 00:27:00;;;;;;;6.80;1.90;;;19.30;96.70;;;;;;4994898;28;20480;-67
2022/06/28 00:29:27;;;;;;;7.10;1.90;;;19.40;96.40;;;;;;4994275;28;20475;-67
2022/06/28 00:31:55;;;;;;;5.90;1.60;;;19.40;96.40;;;;;;4994156;28;20533;-68
2022/06/28 00:34:22;;;;;;;6.10;1.70;;;19.40;96.60;;;;;;4989959;28;20439;-67
2022/06/28 00:36:50;;;;;;;3.13;1.67;;;19.30;96.50;;;;;;4994305;28;20451;-66
2022/06/28 00:39:17;;;;;;;2.47;1.30;;;19.40;96.60;;;;;;4994372;28;20443;-67
2022/06/28 00:41:45;;;;;;;2.87;1.47;;;19.40;96.60;;;;;;4993674;28;20447;-68
2022/06/28 00:44:14;;;;;;;2.00;1.10;;;19.40;96.60;;;;;;4994033;28;20577;-68
2022/06/28 00:46:42;;;;;;;4.00;1.47;;;19.40;96.40;;;;;;4993622;28;20443;-67
2022/06/28 00:49:11;;;;;;;2.50;1.23;;;19.40;95.50;;;;;;4994154;28;20842;-66
2022/06/28 00:51:37;;;;;;;2.10;1.00;;;19.30;95.90;;;;;;4993479;28;20442;-67
2022/06/28 00:54:05;;;;;;;2.40;1.00;;;19.30;95.90;;;;;;4994109;28;20522;-67
2022/06/28 00:56:32;;;;;;;2.17;1.03;;;19.20;95.80;;;;;;4993826;28;20452;-67
2022/06/28 00:59:00;;;;;;;4.17;1.10;;;19.20;95.60;;;;;;4993348;28;20519;-68
2022/06/28 01:01:28;;;;;;;2.10;1.20;;;19.20;96.00;;;;;;4993861;28;20527;-67
2022/06/28 01:03:56;;;;;;;2.73;1.03;;;19.20;96.20;;;;;;4993241;28;20599;-70
2022/06/28 01:06:23;;;;;;;2.27;1.10;;;19.20;96.70;;;;;;4993848;28;20957;-66
2022/06/28 01:08:50;;;;;;;4.30;1.20;;;19.20;96.60;;;;;;4993277;28;20440;-68
2022/06/28 01:11:21;;;;;;;2.67;0.93;;;19.20;97.10;;;;;;4994051;28;20443;-66
2022/06/28 01:13:49;;;;;;;2.47;1.50;;;19.10;96.30;;;;;;4993579;28;20468;-67
2022/06/28 01:16:19;;;;;;;2.27;1.10;;;19.00;96.50;;;;;;4993507;28;20526;-67
2022/06/28 01:18:47;;;;;;;3.73;1.47;;;18.90;96.90;;;;;;4990224;28;20436;-66
2022/06/28 01:21:15;;;;;;;2.40;1.20;;;18.90;96.80;;;;;;4993336;28;20456;-67
2022/06/28 01:23:45;;;;;;;3.13;1.30;;;18.90;96.50;;;;;;4993529;28;20444;-67
2022/06/28 01:26:15;;;;;;;2.10;1.63;;;18.80;96.80;;;;;;4992867;28;20436;-67
2022/06/28 01:28:43;;;;;;;2.03;1.23;;;18.70;96.80;;;;;;4992628;28;20479;-66
2022/06/28 01:31:10;;;;;;;2.20;1.17;;;18.70;97.20;;;;;;4993000;28;20447;-66
2022/06/28 01:33:38;;;;;;;2.93;1.10;;;18.60;97.00;;;;;;4993234;28;20840;-68
2022/06/28 01:36:06;;;;;;;4.80;0.97;;;18.60;97.10;;;;;;4989148;28;20444;-66
2022/06/28 01:38:34;;;;;;;2.37;1.20;;;18.70;98.00;;;;;;4993590;28;20451;-67
2022/06/28 01:41:03;;;;;;;3.10;1.30;;;18.70;97.40;;;;;;4992672;28;20436;-67
2022/06/28 01:43:31;;;;;;;6.33;1.83;;;18.60;97.40;;;;;;4992884;28;20517;-66
2022/06/28 01:46:00;;;;;;;2.37;1.13;;;18.60;97.40;;;;;;4992766;28;20492;-67
2022/06/28 01:48:27;;;;;;;2.10;1.00;;;18.60;97.50;;;;;;4993245;28;20444;-67
2022/06/28 01:50:54;;;;;;;3.23;1.23;;;18.60;97.60;;;;;;4992086;28;20475;-68
2022/06/28 01:53:22;;;;;;;6.50;1.50;;;18.70;97.70;;;;;;4989053;28;20747;-67
2022/06/28 01:55:51;;;;;;;2.33;1.17;;;18.70;97.60;;;;;;4992719;28;20452;-66
2022/06/28 01:58:20;;;;;;;2.40;1.30;;;18.80;97.70;;;;;;4993030;28;20451;-67
2022/06/28 02:00:47;;;;;;;2.40;1.10;;;18.80;97.40;;;;;;4991931;28;20450;-67
2022/06/28 02:03:14;;;;;;;2.30;1.20;;;18.70;97.10;;;;;;4992872;28;20553;-66
2022/06/28 02:05:41;;;;;;;2.30;1.20;;;18.80;97.40;;;;;;4992129;28;20535;-67
2022/06/28 02:08:10;;;;;;;7.13;1.50;;;18.70;97.30;;;;;;4992664;28;20462;-66
2022/06/28 02:10:37;;;;;;;2.87;1.30;;;18.70;97.10;;;;;;4991604;28;20974;-69
2022/06/28 02:13:08;;;;;;;2.73;1.30;;;18.70;97.40;;;;;;4992519;28;20459;-67
2022/06/28 02:15:37;;;;;;;4.60;1.40;;;18.70;97.70;;;;;;4992403;28;20443;-67
2022/06/28 02:18:05;;;;;;;2.20;1.20;;;18.80;98.10;;;;;;4991627;28;20953;-68
2022/06/28 02:20:32;;;;;;;7.40;1.10;;;18.80;98.40;;;;;;4992635;28;20535;-66
2022/06/28 02:23:02;;;;;;;3.90;1.23;;;18.80;98.50;;;;;;4991884;28;20888;-67
2022/06/28 02:25:29;;;;;;;3.67;1.20;;;18.80;98.20;;;;;;4992224;28;20989;-67
2022/06/28 02:27:56;;;;;;;2.37;1.20;;;18.90;98.00;;;;;;4991674;28;20759;-67
2022/06/28 02:30:23;;;;;;;3.70;1.60;;;18.90;97.30;;;;;;4991755;28;20830;-67
2022/06/28 02:32:52;;;;;;;2.83;1.07;;;18.80;97.50;;;;;;4991861;28;20448;-67
2022/06/28 02:40:48;;;;;;;5.27;1.60;;;18.90;98.30;;;;;;4992127;28;20913;-66
2022/06/28 02:43:15;;;;;;;2.17;1.27;;;18.80;98.40;;;;;;4991470;28;20931;-66
2022/06/28 02:45:44;;;;;;;2.37;1.30;;;18.80;98.50;;;;;;4991980;28;20925;-68
2022/06/28 02:48:12;;;;;;;3.80;1.47;;;18.80;98.60;;;;;;4991483;28;20463;-67
2022/06/28 02:50:40;;;;;;;2.47;1.50;;;18.80;98.70;;;;;;4991863;28;20551;-67
2022/06/28 02:53:07;;;;;;;3.37;1.60;;;18.70;98.80;;;;;;4991591;28;20446;-67
2022/06/28 02:55:34;;;;;;;9.10;2.07;;;18.80;99.00;;;;;;4991386;28;20443;-67
2022/06/28 02:58:01;;;;;;;2.90;1.67;;;18.80;98.90;;;;;;4991591;28;20431;-66
2022/06/28 03:00:28;;;;;;;3.50;1.77;;;18.80;99.00;;;;;;4991556;28;20911;-67
2022/06/28 03:02:55;;;;;;;4.90;1.43;;;18.80;99.10;;;;;;4991584;28;20448;-67
2022/06/28 03:05:24;;;;;;;5.90;1.60;;;18.80;99.20;;;;;;4991257;28;20483;-67
2022/06/28 03:07:52;;;;;;;4.73;1.83;;;18.80;99.60;;;;;;4991131;28;20436;-66
2022/06/28 03:10:19;;;;;;;20.53;2.37;;;18.80;99.50;;;;;;4991836;28;20945;-67
2022/06/28 03:12:46;;;;;;;8.73;1.80;;;18.90;99.40;;;;;;4991434;28;20436;-66
2022/06/28 03:15:14;;;;;;;9.07;1.80;;;18.90;99.30;;;;;;4991116;28;20530;-68
2022/06/28 03:17:43;;;;;;;4.13;1.50;;;18.90;99.40;;;;;;4987223;28;21258;-67
2022/06/28 03:20:11;;;;;;;3.80;1.30;;;18.90;99.60;;;;;;4991073;28;20451;-66
2022/06/28 03:22:40;;;;;;;2.50;1.27;;;18.90;99.90;;;;;;4991383;28;20511;-68
2022/06/28 03:25:08;;;;;;;4.00;1.43;;;18.90;99.70;;;;;;4990400;28;20962;-67
2022/06/28 03:27:35;;;;;;;2.30;1.43;;;18.90;99.60;;;;;;4991429;28;20444;-66
2022/06/28 03:30:03;;;;;;;4.03;1.30;;;18.90;99.60;;;;;;4991590;28;20474;-67
2022/06/28 03:32:30;;;;;;;4.20;1.77;;;19.00;99.40;;;;;;4990963;28;20502;-67
2022/06/28 03:34:58;;;;;;;2.67;1.20;;;19.00;99.20;;;;;;4990920;28;20447;-67
2022/06/28 03:37:25;;;;;;;3.00;1.10;;;18.90;99.00;;;;;;4991066;28;20448;-67
2022/06/28 03:39:53;;;;;;;3.37;1.50;;;18.80;99.00;;;;;;4991425;28;20469;-67
2022/06/28 03:42:21;;;;;;;6.90;1.80;;;18.80;99.20;;;;;;4990764;28;20482;-68
2022/06/28 03:44:48;;;;;;;3.40;1.70;;;18.90;99.20;;;;;;4986967;28;20487;-67
2022/06/28 03:47:15;;;;;;;2.93;1.50;;;18.90;99.10;;;;;;4990272;28;20471;-66
2022/06/28 03:49:43;;;;;;;3.33;2.20;;;18.80;99.30;;;;;;4991617;28;20830;-67
2022/06/28 03:52:10;;;;;;;4.50;1.60;;;18.80;99.50;;;;;;4996906;28;20527;-68
2022/06/28 03:54:37;;;;;;;2.90;2.07;;;18.80;99.80;;;;;;4993673;28;20563;-67
2022/06/28 03:57:06;;;;;;;3.20;1.60;;;18.70;99.90;;;;;;4996056;28;20821;-67
2022/06/28 03:59:35;;;;;;;3.80;1.30;;;18.70;99.90;;;;;;4995783;28;20494;-67
2022/06/28 04:02:02;;;;;;;4.70;1.47;;;18.60;99.90;;;;;;4996995;28;20443;-67
2022/06/28 04:04:34;;;;;;;4.27;1.50;;;18.60;99.90;;;;;;4997506;28;20980;-67
2022/06/28 04:07:01;;;;;;;7.63;1.50;;;18.70;99.90;;;;;;4997994;28;20799;-67
2022/06/28 04:09:28;;;;;;;3.43;1.60;;;18.70;99.90;;;;;;4997552;28;20961;-68
2022/06/28 04:11:55;;;;;;;3.03;1.70;;;18.80;99.90;;;;;;4996739;28;20439;-69
2022/06/28 04:14:23;;;;;;;2.33;1.43;;;18.80;99.90;;;;;;4997120;28;20440;-67
2022/06/28 04:16:50;;;;;;;3.80;1.90;;;18.90;99.90;;;;;;4996986;28;20533;-67
2022/06/28 04:19:17;;;;;;;4.53;1.70;;;18.90;99.80;;;;;;4997494;28;20439;-67
2022/06/28 04:21:44;;;;;;;5.50;2.40;;;19.00;99.90;;;;;;4996481;28;20439;-67
2022/06/28 04:24:11;;;;;;;3.83;1.83;;;19.00;99.90;;;;;;4997283;28;20447;-67
2022/06/28 04:26:38;;;;;;;3.50;1.80;;;19.10;99.90;;;;;;4997265;28;20529;-68
2022/06/28 04:29:06;;;;;;;5.30;2.00;;;19.10;99.90;;;;;;4997056;28;20510;-68
2022/06/28 04:31:34;;;;;;;8.33;1.87;;;19.20;99.90;;;;;;4997065;28;20463;-67
2022/06/28 04:34:02;;;;;;;2.37;1.67;;;19.20;99.90;;;;;;4997348;28;20914;-67
2022/06/28 04:36:29;;;;;;;2.90;1.90;;;19.30;99.90;;;;;;4997416;28;20432;-67
2022/06/28 04:38:56;;;;;;;7.20;1.77;;;19.30;99.90;;;;;;4997314;28;20522;-67
2022/06/28 04:41:25;;;;;;;6.20;1.60;;;19.40;99.90;;;;;;4997011;28;20523;-67
2022/06/28 04:43:53;;;;;;;3.50;2.00;;;19.40;99.90;;;;;;4997697;28;20435;-67
2022/06/28 04:46:20;;;;;;;3.70;1.70;;;19.50;99.90;;;;;;4996638;28;20570;-67
2022/06/28 04:48:49;;;;;;;2.37;1.60;;;19.50;99.90;;;;;;4997564;28;20435;-67
2022/06/28 04:51:16;;;;;;;2.83;1.40;;;19.40;99.90;;;;;;4996794;28;20532;-68
2022/06/28 04:53:47;;;;;;;6.00;1.93;;;19.40;99.90;;;;;;4996873;28;20471;-68
2022/06/28 04:56:16;;;;;;;3.23;1.77;;;19.40;99.70;;;;;;4996029;28;20447;-66
2022/06/28 04:58:43;;;;;;;3.90;1.60;;;19.30;99.80;;;;;;4996542;28;20964;-67
2022/06/28 05:01:11;;;;;;;3.50;1.77;;;19.40;99.90;;;;;;4995827;28;20926;-68
2022/06/28 05:03:38;;;;;;;4.90;2.10;;;19.40;99.60;;;;;;4992781;28;20444;-68
2022/06/28 05:06:07;;;;;;;4.10;2.00;;;19.40;99.90;;;;;;4993644;28;20514;-67
2022/06/28 05:08:34;;;;;;;2.70;1.60;;;19.40;99.70;;;;;;4994008;28;20440;-67
2022/06/28 05:11:01;;;;;;;3.87;1.70;;;19.50;99.80;;;;;;4993267;28;20498;-67
2022/06/28 05:13:29;;;;;;;6.20;1.63;;;19.70;99.80;;;;;;4993725;28;20836;-69
2022/06/28 05:15:56;;;;;;;3.70;2.00;;;19.90;99.70;;;;;;4993965;28;20448;-67
2022/06/28 05:18:23;;;;;;;5.60;1.80;;;20.00;98.80;;;;;;4993712;28;20440;-67
2022/06/28 05:20:53;;;;;;;2.40;1.50;;;20.20;98.70;;;;;;4991950;28;20539;-74
2022/06/28 05:23:21;;;;;;;3.40;1.93;;;20.30;98.50;;;;;;4984033;28;20498;-68
2022/06/28 05:25:49;;;;;;;4.27;1.73;;;20.40;98.10;;;;;;4985246;28;20511;-68
2022/06/28 05:28:16;;;;;;;3.80;2.03;;;20.60;97.40;;;;;;4988971;28;20471;-69
2022/06/28 05:30:43;;;;;;;4.53;1.77;;;20.50;96.50;;;;;;4989184;28;20475;-67
2022/06/28 05:33:10;;;;;;;7.77;2.10;;;20.60;96.70;;;;;;4988274;28;20731;-69
2022/06/28 05:35:37;;;;;;;2.73;1.70;;;20.70;96.70;;;;;;4988219;28;20439;-67
2022/06/28 05:38:05;;;;;;;4.27;1.83;;;20.70;96.50;;;;;;4988105;28;20479;-68
2022/06/28 05:40:34;;;;;;;5.10;1.93;;;20.80;96.30;;;;;;4988912;28;20533;-70
2022/06/28 05:43:01;;;;;;;6.13;2.57;;;20.80;96.00;;;;;;4988937;28;20518;-68
2022/06/28 05:45:29;;;;;;;4.50;2.40;;;20.90;96.10;;;;;;4989086;28;20523;-69
2022/06/28 05:47:56;;;;;;;3.10;2.07;;;20.90;96.00;;;;;;4978475;28;20443;-68
2022/06/28 05:50:23;;;;;;;4.63;2.23;;;21.00;95.70;;;;;;4993521;28;20432;-69
2022/06/28 05:52:51;;;;;;;6.13;2.27;;;21.10;95.30;;;;;;4988942;28;20448;-67
2022/06/28 05:55:18;;;;;;;9.67;2.60;;;21.20;94.70;;;;;;4992765;28;21052;-67
2022/06/28 05:57:47;;;;;;;5.07;2.83;;;21.30;94.00;;;;;;4992490;28;20523;-67
2022/06/28 06:00:15;;;;;;;4.93;2.50;;;21.40;93.70;;;;;;4992320;28;20474;-68
2022/06/28 06:02:42;;;;;;;4.93;2.27;;;21.50;93.90;;;;;;4992608;28;20530;-67
2022/06/28 06:05:11;;;;;;;4.07;2.10;;;21.60;94.30;;;;;;4992685;28;20479;-67
2022/06/28 06:07:38;;;;;;;5.50;2.50;;;21.70;94.50;;;;;;4992371;28;20480;-67
2022/06/28 06:10:06;;;;;;;4.00;2.50;;;21.60;93.40;;;;;;4992396;28;20947;-68
2022/06/28 06:12:34;;;;;;;3.20;2.10;;;21.70;93.30;;;;;;4988420;28;20482;-67
2022/06/28 06:15:02;;;;;;;4.33;2.77;;;21.70;93.80;;;;;;4992166;28;20444;-67
2022/06/28 06:17:29;;;;;;;4.00;1.90;;;21.80;92.90;;;;;;4992160;28;20849;-68
2022/06/28 06:19:56;;;;;;;3.20;2.80;;;21.90;93.00;;;;;;4992214;28;20470;-67
2022/06/28 06:22:23;;;;;;;4.37;2.30;;;22.00;93.30;;;;;;4992122;28;20440;-69
2022/06/28 06:24:50;;;;;;;6.53;2.30;;;22.10;91.70;;;;;;4992734;28;20448;-69
2022/06/28 06:27:18;;;;;;;3.30;2.30;;;22.10;91.50;;;;;;4991270;28;20483;-67
2022/06/28 06:29:45;;;;;;;4.17;2.30;;;22.10;91.60;;;;;;4991893;28;20467;-67
2022/06/28 06:32:14;;;;;;;3.77;2.80;;;22.10;91.90;;;;;;4992107;28;20572;-68
2022/06/28 06:34:41;;;;;;;3.33;2.50;;;22.30;92.20;;;;;;4992036;28;20547;-67
2022/06/28 06:37:08;;;;;;;3.57;2.47;;;22.40;91.00;;;;;;4991045;28;20436;-71
2022/06/28 06:39:35;;;;;;;3.97;2.70;;;22.50;90.60;;;;;;4991475;28;20956;-67
2022/06/28 06:42:02;;;;;;;3.53;2.77;;;22.50;91.10;;;;;;4992052;28;20444;-67
2022/06/28 06:44:29;;;;;;;4.20;2.30;;;22.50;90.80;;;;;;4992526;28;20448;-70
2022/06/28 06:46:57;;;;;;;3.10;2.13;;;22.50;91.30;;;;;;4991520;28;20551;-67
2022/06/28 06:49:26;;;;;;;4.53;2.43;;;22.70;91.90;;;;;;4992097;28;20543;-67
2022/06/28 06:51:53;;;;;;;3.37;2.53;;;22.90;91.00;;;;;;4991977;28;20443;-67
2022/06/28 06:54:20;;;;;;;3.67;2.40;;;23.00;90.20;;;;;;4992021;28;20437;-68
2022/06/28 06:56:47;;;;;;;2.83;1.90;;;23.10;89.50;;;;;;4989564;28;20445;-68
2022/06/28 06:59:16;;;;;;;3.73;2.30;;;23.10;85.30;;;;;;4989325;28;20449;-68
2022/06/28 07:01:44;;;;;;;3.30;2.20;;;23.10;84.20;;;;;;4991047;28;20475;-68
2022/06/28 07:04:11;;;;;;;3.17;2.20;;;23.00;83.20;;;;;;4991330;28;20453;-68
2022/06/28 07:06:40;;;;;;;3.00;2.17;;;23.00;82.50;;;;;;4991232;28;20497;-67
2022/06/28 07:09:07;;;;;;;3.80;2.13;;;23.10;85.30;;;;;;4991272;28;20446;-67
2022/06/28 07:11:35;;;;;;;4.30;2.37;;;23.30;86.20;;;;;;4991668;28;20449;-68
2022/06/28 07:14:03;;;;;;;3.60;2.20;;;23.40;84.10;;;;;;4991834;28;20929;-68
2022/06/28 07:16:30;;;;;;;2.90;2.10;;;23.40;81.80;;;;;;4991219;28;20835;-68
2022/06/28 07:18:57;;;;;;;3.80;2.17;;;23.50;82.40;;;;;;4991824;28;20442;-69
2022/06/28 07:21:25;;;;;;;4.50;2.13;;;23.70;80.80;;;;;;4990808;28;20880;-67
2022/06/28 07:23:53;;;;;;;3.30;2.33;;;23.80;81.30;;;;;;4991692;28;20466;-70
2022/06/28 07:26:20;;;;;;;3.27;2.20;;;23.90;79.60;;;;;;4986451;28;21051;-68
2022/06/28 07:28:48;;;;;;;2.80;1.83;;;23.90;81.00;;;;;;4991157;28;20998;-67
2022/06/28 07:31:15;;;;;;;3.17;1.67;;;24.00;81.10;;;;;;4990723;28;20443;-68
2022/06/28 07:33:43;;;;;;;3.00;2.20;;;24.20;80.90;;;;;;4990842;28;20454;-68
2022/06/28 07:36:10;;;;;;;7.73;3.40;;;24.40;80.90;;;;;;4987471;28;20501;-68
2022/06/28 07:38:37;;;;;;;3.50;2.40;;;24.50;78.90;;;;;;4991656;28;20525;-68
2022/06/28 07:41:06;;;;;;;3.83;2.60;;;24.70;78.40;;;;;;4990709;28;20455;-68
2022/06/28 07:43:33;;;;;;;3.13;2.23;;;24.90;78.80;;;;;;4990853;28;20858;-68
2022/06/28 07:46:01;;;;;;;2.30;1.73;;;25.20;77.60;;;;;;4990979;28;20511;-68
2022/06/28 07:48:28;;;;;;;3.03;1.80;;;25.40;76.20;;;;;;4991259;28;20922;-68
2022/06/28 07:53:40;;;;;;;4.50;2.10;;;25.70;72.90;;;;;;4991103;28;20439;-67
2022/06/28 07:56:08;;;;;;;3.23;1.80;;;25.90;71.90;;;;;;4990478;28;20831;-68
2022/06/28 07:58:36;;;;;;;2.93;1.70;;;25.90;71.80;;;;;;4990235;28;20432;-68
2022/06/28 08:01:03;;;;;;;3.40;1.90;;;26.00;70.90;;;;;;4990139;28;20454;-69
2022/06/28 08:03:30;;;;;;;2.87;1.97;;;25.90;68.20;;;;;;4991342;28;20447;-68
2022/06/28 08:05:57;;;;;;;3.30;1.90;;;25.90;67.70;;;;;;4990660;28;21040;-68
2022/06/28 08:08:24;;;;;;;3.70;2.03;;;25.90;67.90;;;;;;4990318;28;20506;-67
2022/06/28 08:10:51;;;;;;;3.97;2.20;;;26.10;68.80;;;;;;4991000;28;20432;-68
2022/06/28 08:13:20;;;;;;;4.03;1.97;;;26.30;70.00;;;;;;4990844;28;20939;-68
2022/06/28 08:15:47;;;;;;;4.60;1.80;;;26.40;68.80;;;;;;4990471;28;20474;-68
2022/06/28 08:18:14;;;;;;;2.57;1.80;;;26.60;67.90;;;;;;4990477;28;20444;-71
2022/06/28 08:20:41;;;;;;;2.50;1.80;;;26.70;67.50;;;;;;4986902;28;20502;-68
2022/06/28 08:23:09;;;;;;;2.63;1.93;;;26.80;65.90;;;;;;4990804;28;21624;-68
2022/06/28 08:25:36;;;;;;;3.57;2.07;;;26.90;66.90;;;;;;4990743;28;20925;-67
2022/06/28 08:28:04;;;;;;;8.23;2.20;;;27.10;64.40;;;;;;4989857;28;20483;-69
2022/06/28 08:30:33;;;;;;;2.40;1.60;;;27.20;63.30;;;;;;4990918;28;20877;-68
2022/06/28 08:33:00;;;;;;;2.33;1.70;;;27.30;60.80;;;;;;4991030;28;20444;-68
2022/06/28 08:35:27;;;;;;;3.77;2.07;;;27.30;61.10;;;;;;4991188;28;20435;-71
2022/06/28 08:37:55;;;;;;;4.43;2.17;;;27.40;60.20;;;;;;4993545;28;20539;-68
2022/06/28 08:40:25;;;;;;;3.87;1.80;;;27.40;59.10;;;;;;4994642;28;20443;-68
2022/06/28 08:42:55;;;;;;;5.77;2.30;;;27.30;58.30;;;;;;4994362;28;20439;-68
2022/06/28 08:45:23;;;;;;;3.47;2.50;;;27.20;58.90;;;;;;4994463;28;20489;-68
2022/06/28 08:47:54;;;;;;;2.60;1.80;;;27.20;58.30;;;;;;4993840;28;20475;-68
2022/06/28 08:50:33;;;;;;;2.73;2.17;;;27.10;58.30;;;;;;4994686;28;20459;-68
2022/06/28 08:53:02;;;;;;;2.73;2.10;;;27.40;62.00;;;;;;4990504;28;20432;-68
2022/06/28 08:55:30;;;;;;;2.43;1.60;;;27.50;58.60;;;;;;4994082;28;20447;-70
2022/06/28 08:57:59;;;;;;;6.80;2.10;;;27.60;58.10;;;;;;4993433;28;20439;-68
2022/06/28 09:00:26;;;;;;;5.17;2.37;;;27.70;58.30;;;;;;4994093;28;20475;-68
2022/06/28 09:02:55;;;;;;;3.43;1.77;;;27.80;58.30;;;;;;4993921;28;20439;-68
2022/06/28 09:05:25;;;;;;;4.33;1.90;;;27.90;57.50;;;;;;4993912;28;20455;-67
2022/06/28 09:07:54;;;;;;;3.40;1.93;;;27.90;55.30;;;;;;4992759;28;20482;-68
2022/06/28 09:10:21;;;;;;;2.80;1.97;;;28.00;56.20;;;;;;4994307;28;20502;-68
2022/06/28 09:12:54;;;;;;;4.47;1.60;;;28.20;54.60;;;;;;4993421;28;20475;-68
2022/06/28 09:15:23;;;;;;;4.17;2.47;;;28.20;55.10;;;;;;4993594;28;20448;-68
2022/06/28 09:17:55;;;;;;;3.33;2.10;;;28.30;54.40;;;;;;4993842;28;20444;-68
2022/06/28 09:20:37;;;;;;;2.87;2.00;;;28.40;55.50;;;;;;4993782;28;20439;-67
2022/06/28 09:23:04;;;;;;;2.70;1.83;;;28.50;55.20;;;;;;4990642;28;20440;-67
2022/06/28 09:25:32;;;;;;;3.60;2.47;;;28.60;55.00;;;;;;4994028;28;20475;-68
2022/06/28 09:28:01;;;;;;;2.60;2.03;;;28.80;54.70;;;;;;4993823;28;20483;-68
2022/06/28 09:30:31;;;;;;;2.40;1.83;;;28.70;52.90;;;;;;4988991;28;20549;-68
2022/06/28 09:33:03;;;;;;;4.07;2.37;;;28.50;53.10;;;;;;4993837;28;20475;-68
2022/06/28 09:35:30;;;;;;;3.33;2.10;;;28.20;52.80;;;;;;4993187;28;20444;-69
2022/06/28 09:37:57;;;;;;;3.07;1.90;;;28.00;53.80;;;;;;4993643;28;20499;-68
2022/06/28 09:40:28;;;;;;;2.90;2.00;;;27.80;54.00;;;;;;4993108;28;20443;-67
2022/06/28 09:43:10;;;;;;;2.80;2.10;;;27.40;54.40;;;;;;4992733;28;20523;-67
2022/06/28 09:45:39;;;;;;;4.60;2.20;;;27.10;55.70;;;;;;4991273;28;20998;-67
2022/06/28 09:48:09;;;;;;;3.33;2.10;;;26.90;57.40;;;;;;4992398;28;20483;-68
2022/06/28 09:50:38;;;;;;;4.00;2.30;;;26.80;57.50;;;;;;4992914;28;20448;-67
2022/06/28 09:53:06;;;;;;;2.90;2.20;;;26.70;56.70;;;;;;4992450;28;20467;-67
2022/06/28 09:55:34;;;;;;;3.10;1.77;;;26.50;57.30;;;;;;4993810;28;20431;-67
2022/06/28 09:58:03;;;;;;;4.13;2.10;;;26.40;57.40;;;;;;4992553;28;20447;-68
2022/06/28 10:00:34;;;;;;;3.00;1.87;;;26.20;58.60;;;;;;4993389;28;20467;-68
2022/06/28 10:03:01;;;;;;;5.43;2.07;;;26.00;57.50;;;;;;4993204;28;20452;-67
2022/06/28 10:05:30;;;;;;;4.20;2.20;;;25.90;58.00;;;;;;4993451;28;20432;-68
2022/06/28 10:07:58;;;;;;;2.63;2.13;;;25.70;58.20;;;;;;4992166;28;20838;-68
2022/06/28 10:10:26;;;;;;;2.90;1.87;;;25.60;58.10;;;;;;4993149;28;20443;-68
2022/06/28 10:15:40;;;;;;;2.27;1.67;;;25.40;59.70;;;;;;4989951;28;20577;-68
2022/06/28 10:18:13;;;;;;;3.50;1.83;;;25.20;59.60;;;;;;4992871;28;20806;-68
2022/06/28 10:20:43;;;;;;;3.47;2.23;;;25.10;60.40;;;;;;4988382;28;20510;-67
2022/06/28 10:23:25;;;;;;;2.80;2.07;;;24.90;61.50;;;;;;4992604;28;20502;-67
2022/06/28 10:26:09;;;;;;;4.03;2.23;;;24.80;63.10;;;;;;4988849;28;20470;-67
2022/06/28 10:28:39;;;;;;;3.33;2.37;;;24.70;62.30;;;;;;4991086;28;20823;-68
2022/06/28 10:31:35;;;;;;;5.60;2.30;;;24.60;62.80;;;;;;4988410;28;20475;-68
2022/06/28 10:34:03;;;;;;;5.43;2.77;;;24.40;64.70;;;;;;4987120;28;20451;-67
2022/06/28 10:36:50;;;;;;;4.80;2.47;;;24.40;65.10;;;;;;4992258;28;20933;-67
2022/06/28 10:39:20;;;;;;;4.67;2.30;;;24.40;64.90;;;;;;4989024;28;20455;-67
2022/06/28 10:41:49;;;;;;;2.90;2.33;;;24.30;65.40;;;;;;4992135;28;20447;-67
2022/06/28 10:44:18;;;;;;;3.90;2.67;;;24.30;66.30;;;;;;4991850;28;20442;-67
2022/06/28 10:46:51;;;;;;;3.50;2.50;;;24.40;66.40;;;;;;4991866;28;20446;-68
2022/06/28 10:49:18;;;;;;;4.23;3.53;;;24.30;66.80;;;;;;4992177;28;20439;-67
2022/06/28 10:52:14;;;;;;;3.17;2.17;;;24.40;66.60;;;;;;4992039;28;20534;-68
2022/06/28 10:55:03;;;;;;;3.13;2.30;;;24.40;67.40;;;;;;4991829;28;20486;-68
2022/06/28 10:57:36;;;;;;;4.33;2.27;;;24.40;67.50;;;;;;4990683;28;20479;-68
2022/06/28 11:00:07;;;;;;;3.73;2.33;;;24.50;67.90;;;;;;4990649;28;20938;-67
2022/06/28 11:02:47;;;;;;;3.30;2.43;;;24.50;67.80;;;;;;4991388;28;20442;-67
2022/06/28 11:05:15;;;;;;;3.57;2.60;;;24.40;68.30;;;;;;4989543;28;21235;-67
2022/06/28 11:07:57;;;;;;;3.50;2.70;;;24.40;68.20;;;;;;4991821;28;20475;-68
2022/06/28 11:10:25;;;;;;;5.60;2.20;;;24.50;68.30;;;;;;4989408;28;20534;-68
2022/06/28 11:12:52;;;;;;;3.70;2.50;;;24.50;68.20;;;;;;4991963;28;20769;-68
2022/06/28 11:15:35;;;;;;;2.90;2.07;;;24.40;69.10;;;;;;4991519;28;20443;-67
2022/06/28 11:18:03;;;;;;;4.10;2.77;;;24.40;68.90;;;;;;4989597;28;20479;-69
2022/06/28 11:20:31;;;;;;;3.17;2.70;;;24.30;69.80;;;;;;4991325;28;20505;-68
2022/06/28 11:23:00;;;;;;;4.93;2.90;;;24.30;69.90;;;;;;4991540;28;20470;-68
2022/06/28 11:27:19;;;;;;;3.17;2.50;;;24.20;68.20;;;;;;4990890;28;20491;-68
2022/06/28 11:28:15;;;;;;;3.50;2.57;;;24.00;70.00;;;;;;4991336;28;20478;-67
2022/06/28 11:30:43;;;;;;;3.73;2.90;;;23.80;70.90;;;;;;4991042;28;21001;-67
2022/06/28 11:33:11;;;;;;;3.27;2.47;;;23.70;72.10;;;;;;4991688;28;20510;-67
2022/06/28 11:35:40;;;;;;;4.50;2.57;;;23.60;71.20;;;;;;4991146;28;20489;-67
2022/06/28 11:38:11;;;;;;;3.23;2.77;;;23.50;72.20;;;;;;4991392;28;20445;-67
2022/06/28 11:40:42;;;;;;;5.27;2.90;;;23.40;72.80;;;;;;4991762;28;20446;-68
2022/06/28 11:43:11;;;;;;;6.53;2.80;;;23.30;73.90;;;;;;4987161;28;20442;-67
2022/06/28 11:45:39;;;;;;;4.67;3.20;;;23.30;73.50;;;;;;4991461;28;20450;-67
2022/06/28 11:48:09;;;;;;;5.87;3.17;;;23.10;72.60;;;;;;4991285;28;20490;-67
2022/06/28 11:50:41;;;;;;;4.40;2.67;;;23.00;74.10;;;;;;4990607;28;20537;-67
2022/06/28 11:53:11;;;;;;;3.53;2.80;;;22.90;74.10;;;;;;4990829;28;21113;-67
2022/06/28 11:55:40;;;;;;;5.73;3.10;;;22.80;74.90;;;;;;4991009;28;20446;-67
2022/06/28 11:58:12;;;;;;;4.37;2.40;;;22.80;75.50;;;;;;4990948;28;20442;-67
2022/06/28 12:00:39;;;;;;;3.57;2.97;;;22.80;76.30;;;;;;4991426;28;20508;-68
2022/06/28 12:03:07;;;;;;;4.23;3.10;;;22.80;76.40;;;;;;4991040;28;20445;-67
2022/06/28 12:05:35;;;;;;;3.40;2.73;;;22.80;76.70;;;;;;4991053;28;20451;-68
2022/06/28 12:08:04;;;;;;;3.77;3.23;;;22.80;77.50;;;;;;4990606;28;20521;-67
2022/06/28 12:10:34;;;;;;;3.43;2.63;;;22.70;77.30;;;;;;4991332;28;20439;-68
2022/06/28 12:13:11;;;;;;;3.30;2.50;;;22.70;77.70;;;;;;4993640;28;20903;-68
2022/06/28 12:15:38;;;;;;;3.80;3.10;;;22.70;77.80;;;;;;4992647;28;20850;-67
2022/06/28 12:18:07;;;;;;;3.70;2.90;;;22.60;78.10;;;;;;4995311;28;20528;-67
2022/06/28 12:20:35;;;;;;;3.90;3.40;;;22.60;78.50;;;;;;4992660;28;20846;-72
2022/06/28 12:23:06;;;;;;;3.70;3.40;;;22.60;79.10;;;;;;4985664;28;20952;-68
2022/06/28 12:25:35;;;;;;;4.13;3.43;;;22.60;78.60;;;;;;4992758;28;20448;-68
2022/06/28 12:28:03;;;;;;;4.70;3.23;;;22.50;79.70;;;;;;4989542;28;20482;-68
2022/06/28 12:30:30;;;;;;;3.70;3.30;;;22.50;81.10;;;;;;4991331;28;20484;-67
2022/06/28 12:32:58;;;;;;;5.53;3.40;;;22.50;81.70;;;;;;4990308;28;20814;-73
2022/06/28 12:35:26;;;;;;;4.33;3.50;;;22.40;82.20;;;;;;4992628;28;20448;-68
2022/06/28 12:37:54;;;;;;;3.67;3.27;;;22.30;83.40;;;;;;4990919;28;20436;-68
2022/06/28 12:40:21;;;;;;;6.50;4.23;;;22.20;84.60;;;;;;4992830;28;20441;-68
2022/06/28 12:42:50;;;;;;;5.10;3.43;;;22.20;84.30;;;;;;4993327;28;20446;-67
2022/06/28 12:45:17;;;;;;;5.87;3.23;;;22.20;84.80;;;;;;4992374;28;20440;-68
2022/06/28 12:47:44;;;;;;;5.90;4.33;;;22.20;86.00;;;;;;4989999;28;20480;-69
2022/06/28 12:50:15;;;;;;;6.07;3.67;;;22.10;86.00;;;;;;4990886;28;20471;-67
2022/06/28 12:52:44;;;;;;;5.57;3.97;;;22.10;85.50;;;;;;4993625;28;20472;-68
2022/06/28 12:55:11;;;;;;;8.10;4.47;;;22.00;86.20;;;;;;4994878;28;20434;-67
2022/06/28 12:57:39;;;;;;;6.90;4.00;;;21.80;87.70;;;;;;4994170;28;20450;-67
2022/06/28 13:00:11;;;;;;;5.00;3.97;;;21.60;89.00;;;;;;4993600;28;20982;-67
2022/06/28 13:02:38;;;;;;;4.40;4.00;;;21.50;90.50;;;;;;4994213;28;20998;-67
2022/06/28 13:05:07;;;;;;;7.33;4.70;;;21.20;91.10;;;;;;4993266;28;20437;-68
2022/06/28 13:07:34;;;;;;;7.53;6.73;;;21.10;92.00;;;;;;4993833;28;20541;-67
2022/06/28 13:10:01;;;;;;;7.17;6.20;;;21.10;92.30;;;;;;4994347;28;20475;-67